KLGB

Long Beach /Daugherty Field/ Airport

ICAO Code KLGB
IATA Code LGB
Name Long Beach /Daugherty Field/ Airport
Location Long Beach, California, US
Elevation 60 Feet / 18.3 Meters
Latitude 33.81769943
Longitude -118.15200040
METAR KLGB 251553Z 06003KT 10SM SCT022 BKN040 18/11 A3001 RMK AO2 SLP160 T01780106
Extra information Display Charts
Runway Length Width Surface Elevation
16L 4267 ft 75 ft ASP 40 ft
16R 4470 ft 75 ft ASP 50 ft
34R 4267 ft 75 ft ASP 33 ft
34L 4470 ft 75 ft ASP 41 ft